Time;durP1;ratioP1;P1;durP2;ratioP2;P2;SDS_P1;SDS_P2;PMS_P1;PMS_P2;Temp;Humidity;BMP_temperature;BMP_pressure;BME280_temperature;BME280_humidity;BME280_pressure;Samples;Min_cycle;Max_cycle;Signal;HPM_P1;HPM_P2
2023/10/06 00:00:09;;;;;;;0.28;0.22;;;13.70;1.00;;;;;;5035624;28;20479;-78
2023/10/06 00:02:34;;;;;;;3.90;1.15;;;13.60;1.00;;;;;;5034624;28;20053;-78
2023/10/06 00:05:01;;;;;;;0.40;0.40;;;14.00;1.00;;;;;;5042733;28;20044;-78
2023/10/06 00:07:26;;;;;;;0.90;0.77;;;13.70;1.00;;;;;;5051515;28;20041;-78
2023/10/06 00:09:55;;;;;;;0.00;0.00;;;13.70;1.00;;;;;;5051638;28;20044;-78
2023/10/06 00:12:21;;;;;;;0.35;0.28;;;13.70;1.00;;;;;;5051141;28;20071;-79
2023/10/06 00:14:48;;;;;;;0.00;0.00;;;13.80;1.00;;;;;;5052652;28;20088;-78
2023/10/06 00:17:17;;;;;;;1.25;0.82;;;13.60;1.00;;;;;;5047385;28;20097;-78
2023/10/06 00:19:43;;;;;;;0.08;0.08;;;13.70;1.00;;;;;;5052894;28;20077;-78
2023/10/06 00:24:41;;;;;;;0.10;0.10;;;13.70;1.00;;;;;;5052433;28;20052;-79
2023/10/06 00:27:13;;;;;;;0.17;0.17;;;13.70;1.00;;;;;;5051635;28;20114;-78
2023/10/06 00:29:49;;;;;;;0.10;0.10;;;13.70;99.90;;;;;;5052184;28;20037;-78
2023/10/06 00:32:26;;;;;;;1.67;0.10;;;13.70;99.90;;;;;;5054768;28;20057;-78
2023/10/06 00:35:11;;;;;;;0.00;0.00;;;13.70;1.00;;;;;;5055314;28;20045;-78
2023/10/06 00:37:38;;;;;;;0.38;0.30;;;13.70;1.00;;;;;;5048345;28;20049;-78
2023/10/06 00:40:19;;;;;;;0.30;0.30;;;13.70;99.90;;;;;;5056490;28;20037;-78
2023/10/06 00:42:56;;;;;;;3.42;0.10;;;13.60;1.00;;;;;;5056529;28;20374;-79
2023/10/06 00:45:24;;;;;;;0.68;0.60;;;13.50;1.00;;;;;;5055572;28;20041;-78
2023/10/06 00:47:53;;;;;;;4.65;1.10;;;13.40;1.00;;;;;;5055479;28;20052;-78
2023/10/06 00:50:22;;;;;;;0.98;0.75;;;13.50;1.00;;;;;;5051654;28;20487;-78
2023/10/06 00:52:48;;;;;;;1.15;0.68;;;13.60;1.00;;;;;;5047852;28;20051;-78
2023/10/06 00:55:14;;;;;;;0.30;0.25;;;13.50;89.20;;;;;;5054504;28;20049;-78
2023/10/06 00:57:52;;;;;;;0.00;0.00;;;13.20;99.90;;;;;;5055708;28;20044;-78
2023/10/06 01:00:21;;;;;;;0.10;0.10;;;13.30;99.90;;;;;;5055777;28;20421;-77
2023/10/06 01:02:48;;;;;;;0.82;0.82;;;13.30;95.00;;;;;;5055112;28;20044;-78
2023/10/06 01:05:17;;;;;;;0.45;0.32;;;13.70;41.60;;;;;;5055810;28;20128;-79
2023/10/06 01:07:46;;;;;;;0.55;0.17;;;13.40;15.60;;;;;;5053825;28;20056;-78
2023/10/06 01:10:17;;;;;;;0.55;0.55;;;13.40;3.60;;;;;;5050997;28;20376;-78
2023/10/06 01:12:51;;;;;;;0.43;0.38;;;13.40;68.00;;;;;;5053442;28;20102;-78
2023/10/06 01:15:19;;;;;;;1.55;1.02;;;13.50;13.20;;;;;;5045122;28;20478;-78
2023/10/06 01:17:45;;;;;;;0.30;0.30;;;13.50;1.00;;;;;;5049473;28;20052;-78
2023/10/06 01:20:22;;;;;;;0.20;0.20;;;13.50;1.00;;;;;;5053653;28;20049;-78
2023/10/06 01:22:55;;;;;;;0.00;0.00;;;13.50;1.00;;;;;;5055574;28;20060;-80
2023/10/06 01:25:22;;;;;;;0.25;0.25;;;13.60;1.00;;;;;;5046788;28;20040;-78
2023/10/06 01:27:50;;;;;;;0.88;0.63;;;13.60;1.00;;;;;;5055298;28;20083;-77
2023/10/06 01:32:45;;;;;;;0.32;0.30;;;13.60;1.00;;;;;;5055120;28;20081;-79
2023/10/06 01:35:34;;;;;;;0.77;0.47;;;13.70;1.00;;;;;;5054653;28;20097;-78
2023/10/06 01:38:00;;;;;;;1.20;0.80;;;13.60;1.00;;;;;;5054730;28;20041;-78
2023/10/06 01:42:53;;;;;;;0.38;0.30;;;13.60;1.00;;;;;;5054339;28;20052;-78
2023/10/06 01:45:21;;;;;;;1.27;0.80;;;13.60;1.00;;;;;;5052695;28;20041;-78
2023/10/06 01:47:55;;;;;;;2.22;1.25;;;13.70;1.00;;;;;;5043264;28;20377;-79
2023/10/06 01:50:26;;;;;;;0.85;0.30;;;13.70;1.00;;;;;;5053182;28;20065;-79
2023/10/06 01:52:53;;;;;;;0.22;0.22;;;13.80;1.00;;;;;;5043519;28;20051;-78
2023/10/06 01:55:24;;;;;;;0.00;0.00;;;13.70;1.00;;;;;;5053533;28;20088;-78
2023/10/06 01:57:51;;;;;;;0.15;0.15;;;13.80;99.90;;;;;;5054789;28;20106;-78
2023/10/06 02:00:26;;;;;;;0.52;0.45;;;13.80;1.00;;;;;;5054954;28;20103;-77
2023/10/06 02:02:52;;;;;;;0.95;0.93;;;13.80;1.00;;;;;;5053471;28;20044;-78
2023/10/06 02:05:17;;;;;;;1.65;1.25;;;13.90;99.90;;;;;;5050270;28;20482;-78
2023/10/06 02:07:44;;;;;;;2.65;0.77;;;14.00;99.90;;;;;;5053994;28;20120;-78
2023/10/06 02:10:15;;;;;;;1.45;1.30;;;14.00;99.90;;;;;;5052585;28;20041;-80
2023/10/06 02:12:41;;;;;;;1.10;0.43;;;14.00;99.90;;;;;;5053869;28;20041;-78
2023/10/06 02:15:10;;;;;;;6.88;0.98;;;14.10;99.90;;;;;;5053591;28;20379;-78
2023/10/06 02:17:42;;;;;;;0.13;0.13;;;14.00;99.90;;;;;;5051526;28;20088;-78
2023/10/06 02:20:18;;;;;;;0.08;0.08;;;14.00;99.90;;;;;;5052765;28;20033;-79
2023/10/06 02:22:45;;;;;;;0.65;0.40;;;14.20;99.90;;;;;;5053653;28;20063;-78
2023/10/06 02:25:11;;;;;;;0.45;0.45;;;14.10;99.90;;;;;;5050166;28;20087;-78
2023/10/06 02:27:44;;;;;;;2.67;1.10;;;14.20;99.90;;;;;;5052322;28;20049;-78
2023/10/06 02:30:15;;;;;;;1.27;1.05;;;14.20;99.90;;;;;;5053547;28;20036;-78
2023/10/06 02:32:42;;;;;;;0.10;0.10;;;14.10;99.90;;;;;;5054104;28;20505;-78
2023/10/06 02:35:07;;;;;;;1.83;0.95;;;14.10;99.90;;;;;;5054303;28;20108;-78
2023/10/06 02:37:33;;;;;;;0.80;0.60;;;14.10;99.90;;;;;;5053503;28;20179;-78
2023/10/06 02:39:59;;;;;;;6.40;2.03;;;14.10;99.90;;;;;;5054082;28;20045;-78
2023/10/06 02:42:25;;;;;;;1.13;0.82;;;14.10;99.90;;;;;;5053492;28;20049;-79
2023/10/06 02:44:51;;;;;;;1.88;1.00;;;14.10;99.90;;;;;;5053498;28;20067;-78
2023/10/06 02:47:17;;;;;;;0.10;0.00;;;14.10;99.90;;;;;;5052107;28;20052;-78
2023/10/06 02:49:50;;;;;;;0.88;0.40;;;14.10;99.90;;;;;;5052001;28;20132;-78
2023/10/06 02:52:30;;;;;;;0.85;0.52;;;14.10;1.00;;;;;;5052286;28;20051;-78
2023/10/06 02:55:07;;;;;;;0.47;0.47;;;14.10;1.00;;;;;;5043933;28;20130;-78
2023/10/06 02:57:37;;;;;;;0.30;0.30;;;14.00;99.90;;;;;;5053132;28;20045;-78
2023/10/06 03:02:48;;;;;;;0.00;0.00;;;13.80;1.00;;;;;;5053549;28;20048;-78
2023/10/06 03:05:14;;;;;;;7.07;1.80;;;13.70;1.00;;;;;;5052315;28;20033;-78
2023/10/06 03:07:45;;;;;;;0.55;0.55;;;13.70;1.00;;;;;;5052983;28;20045;-78
2023/10/06 03:10:11;;;;;;;3.72;2.55;;;13.60;69.20;;;;;;5052404;28;20053;-78
2023/10/06 03:12:40;;;;;;;0.28;0.28;;;13.60;99.90;;;;;;5049165;28;20490;-78
2023/10/06 03:15:28;;;;;;;3.15;2.10;;;14.00;99.90;;;;;;5051877;28;20045;-79
2023/10/06 03:18:00;;;;;;;1.10;0.35;;;13.50;99.90;;;;;;5050579;28;20107;-78
2023/10/06 03:20:30;;;;;;;0.15;0.13;;;13.50;99.90;;;;;;5053022;28;20033;-78
2023/10/06 03:22:56;;;;;;;0.98;0.75;;;13.50;99.90;;;;;;5052599;28;20107;-78
2023/10/06 03:25:22;;;;;;;0.10;0.10;;;13.50;99.90;;;;;;5052099;28;20059;-79
2023/10/06 03:27:54;;;;;;;0.10;0.10;;;13.50;99.90;;;;;;5053208;28;20506;-78
2023/10/06 03:30:34;;;;;;;0.50;0.30;;;14.60;99.90;;;;;;5050068;28;20513;-78
2023/10/06 03:33:03;;;;;;;0.75;0.35;;;13.60;99.90;;;;;;5052446;28;20494;-78
2023/10/06 03:35:45;;;;;;;1.00;0.65;;;13.60;99.90;;;;;;5042707;28;20041;-78
2023/10/06 03:40:48;;;;;;;1.02;0.75;;;13.70;99.90;;;;;;5052660;28;20060;-78
2023/10/06 03:46:04;;;;;;;2.28;0.68;;;13.70;99.90;;;;;;5032099;28;20060;-78
2023/10/06 03:48:29;;;;;;;0.50;0.47;;;13.70;99.90;;;;;;5049268;28;20045;-78
2023/10/06 03:50:56;;;;;;;27.15;0.65;;;13.70;99.90;;;;;;5051191;28;20103;-78
2023/10/06 03:53:24;;;;;;;0.70;0.38;;;13.90;99.90;;;;;;5049862;28;20158;-78
2023/10/06 03:55:50;;;;;;;0.55;0.55;;;13.70;99.90;;;;;;5044264;28;20093;-78
2023/10/06 03:58:18;;;;;;;2.08;0.80;;;13.60;99.90;;;;;;5050864;28;20402;-78
2023/10/06 04:00:51;;;;;;;1.77;0.75;;;13.70;99.90;;;;;;5051319;28;20086;-77
2023/10/06 04:03:19;;;;;;;0.35;0.30;;;13.70;99.90;;;;;;5051429;28;20525;-79
2023/10/06 04:05:48;;;;;;;2.15;1.38;;;13.70;99.90;;;;;;5053745;28;20053;-78
2023/10/06 04:08:20;;;;;;;0.55;0.55;;;13.70;99.90;;;;;;5053745;28;20071;-78
2023/10/06 04:10:57;;;;;;;0.10;0.10;;;13.70;99.90;;;;;;5056420;28;20084;-79
2023/10/06 04:13:26;;;;;;;0.65;0.50;;;13.60;99.90;;;;;;5056329;28;20041;-78
2023/10/06 04:15:52;;;;;;;4.57;1.10;;;13.60;1.00;;;;;;5054765;28;20517;-79
2023/10/06 04:18:23;;;;;;;3.00;1.75;;;13.60;1.00;;;;;;5056216;28;20045;-78
2023/10/06 04:20:53;;;;;;;1.35;0.68;;;13.50;1.00;;;;;;5056636;28;20051;-79
2023/10/06 04:23:22;;;;;;;0.63;0.57;;;13.50;1.00;;;;;;5052441;28;20049;-79
2023/10/06 04:25:50;;;;;;;0.43;0.28;;;13.50;44.20;;;;;;5056208;28;20367;-78
2023/10/06 04:28:16;;;;;;;0.95;0.80;;;13.50;72.10;;;;;;5052427;28;20045;-78
2023/10/06 04:30:44;;;;;;;2.20;1.70;;;13.50;38.90;;;;;;5056254;28;20041;-77
2023/10/06 04:33:12;;;;;;;0.93;0.85;;;13.60;1.00;;;;;;5053240;28;20059;-79
2023/10/06 04:35:42;;;;;;;4.40;1.08;;;13.60;1.00;;;;;;5055509;28;20084;-78
2023/10/06 04:38:10;;;;;;;0.22;0.22;;;13.60;11.60;;;;;;5054737;28;20067;-79
2023/10/06 04:40:36;;;;;;;0.55;0.55;;;13.60;1.00;;;;;;5055967;28;20095;-78
2023/10/06 04:43:03;;;;;;;0.47;0.43;;;13.80;1.00;;;;;;5055402;28;20387;-79
2023/10/06 04:45:31;;;;;;;0.35;0.25;;;13.60;1.00;;;;;;5054299;28;20048;-78
2023/10/06 04:48:00;;;;;;;0.68;0.68;;;13.60;1.00;;;;;;5054527;28;20452;-78
2023/10/06 04:50:30;;;;;;;7.97;1.65;;;13.60;1.00;;;;;;5056335;28;20037;-78
2023/10/06 04:52:56;;;;;;;5.22;2.28;;;13.60;1.00;;;;;;5055226;28;20055;-78
2023/10/06 04:55:22;;;;;;;0.70;0.57;;;13.60;1.00;;;;;;5050301;28;20041;-79
2023/10/06 04:57:48;;;;;;;1.58;1.48;;;13.60;1.00;;;;;;5055664;28;20558;-79
2023/10/06 05:00:19;;;;;;;7.30;0.65;;;13.70;1.00;;;;;;5054391;28;20559;-78
2023/10/06 05:02:47;;;;;;;0.82;0.20;;;13.60;1.00;;;;;;5054751;28;20091;-78
2023/10/06 05:05:19;;;;;;;0.20;0.20;;;13.80;99.90;;;;;;5052087;28;20083;-78
2023/10/06 05:07:46;;;;;;;1.08;0.98;;;13.70;99.90;;;;;;5037937;28;20045;-78
2023/10/06 05:10:12;;;;;;;0.63;0.32;;;13.80;99.90;;;;;;5054143;28;20037;-78
2023/10/06 05:12:38;;;;;;;0.85;0.60;;;13.80;99.90;;;;;;5054079;28;20505;-78
2023/10/06 05:15:07;;;;;;;0.57;0.35;;;13.70;99.90;;;;;;5052118;28;20124;-78
2023/10/06 05:17:36;;;;;;;2.28;0.98;;;13.70;99.90;;;;;;5051711;28;20037;-78
2023/10/06 05:20:04;;;;;;;1.65;0.85;;;13.70;99.90;;;;;;5052758;28;20079;-78
2023/10/06 05:22:30;;;;;;;0.82;0.52;;;13.80;99.90;;;;;;5053730;28;20109;-78
2023/10/06 05:24:56;;;;;;;1.50;0.93;;;13.80;99.90;;;;;;5051895;28;20041;-78
2023/10/06 05:27:22;;;;;;;1.85;1.50;;;13.70;99.90;;;;;;5052710;28;20131;-78
2023/10/06 05:29:51;;;;;;;1.80;0.38;;;13.70;99.90;;;;;;5054287;28;20486;-78
2023/10/06 05:32:20;;;;;;;0.55;0.35;;;13.70;99.90;;;;;;5052794;28;20044;-78
2023/10/06 05:34:45;;;;;;;1.33;0.98;;;13.80;99.90;;;;;;5052875;28;20194;-78
2023/10/06 05:37:12;;;;;;;1.98;1.23;;;14.20;99.90;;;;;;5053094;28;20040;-78
2023/10/06 05:39:40;;;;;;;0.45;0.28;;;13.80;99.90;;;;;;5053468;28;20045;-77
2023/10/06 05:42:08;;;;;;;1.75;1.05;;;13.80;99.90;;;;;;5052832;28;20114;-79
2023/10/06 05:44:36;;;;;;;0.90;0.75;;;13.80;99.90;;;;;;5051028;28;20502;-78
2023/10/06 05:47:02;;;;;;;2.95;1.25;;;13.70;99.90;;;;;;5052018;28;20041;-78
2023/10/06 05:49:32;;;;;;;0.90;0.75;;;13.80;99.90;;;;;;5053214;28;20095;-78
2023/10/06 05:51:58;;;;;;;0.20;0.20;;;13.80;99.90;;;;;;5052683;28;20523;-78
2023/10/06 05:54:26;;;;;;;1.10;0.80;;;13.80;99.90;;;;;;5042411;28;20521;-78
2023/10/06 05:56:53;;;;;;;4.22;0.77;;;13.90;99.90;;;;;;5052160;28;20061;-77
2023/10/06 05:59:22;;;;;;;0.40;0.32;;;13.90;99.90;;;;;;5053081;28;20468;-78
2023/10/06 06:01:56;;;;;;;1.75;1.38;;;13.90;99.90;;;;;;5050935;28;20051;-78
2023/10/06 06:04:27;;;;;;;1.45;1.35;;;13.90;99.90;;;;;;5050523;28;20114;-78
2023/10/06 06:06:56;;;;;;;5.28;1.02;;;13.90;99.90;;;;;;5050471;28;20091;-78
2023/10/06 06:09:25;;;;;;;1.30;1.20;;;14.00;99.90;;;;;;5052546;28;20410;-78
2023/10/06 06:11:51;;;;;;;0.60;0.57;;;14.90;99.90;;;;;;5050794;28;20093;-78
2023/10/06 06:14:21;;;;;;;0.55;0.32;;;14.10;99.90;;;;;;5032964;28;20075;-78
2023/10/06 06:16:48;;;;;;;1.58;0.88;;;14.10;99.90;;;;;;5030310;28;20047;-78
2023/10/06 06:19:14;;;;;;;0.40;0.30;;;14.10;99.90;;;;;;5031958;28;20513;-78
2023/10/06 06:21:39;;;;;;;7.28;1.60;;;14.30;90.00;;;;;;5037013;28;20080;-78
2023/10/06 06:24:06;;;;;;;0.55;0.25;;;14.30;1.00;;;;;;5050572;28;20037;-78
2023/10/06 06:26:38;;;;;;;0.85;0.55;;;14.30;1.00;;;;;;5050071;28;20045;-77
2023/10/06 06:29:04;;;;;;;1.48;0.85;;;14.30;1.00;;;;;;5039464;28;20045;-78
2023/10/06 06:31:33;;;;;;;0.70;0.68;;;14.40;1.00;;;;;;5050165;28;20045;-78
2023/10/06 06:34:04;;;;;;;0.50;0.50;;;14.40;1.00;;;;;;5048239;28;20057;-78
2023/10/06 06:36:34;;;;;;;0.80;0.38;;;14.40;1.00;;;;;;5042605;28;20098;-78
2023/10/06 06:38:59;;;;;;;0.17;0.15;;;14.50;1.00;;;;;;5029283;28;20036;-78
2023/10/06 06:41:26;;;;;;;0.63;0.43;;;14.50;1.00;;;;;;5028944;28;20101;-78
2023/10/06 06:43:58;;;;;;;0.90;0.73;;;14.50;1.00;;;;;;5029134;28;20486;-78
2023/10/06 06:46:29;;;;;;;0.32;0.32;;;14.50;99.90;;;;;;5021760;28;20478;-78
2023/10/06 06:48:56;;;;;;;1.48;0.57;;;14.50;1.00;;;;;;5028824;28;20068;-77
2023/10/06 06:51:27;;;;;;;0.25;0.25;;;14.50;1.00;;;;;;5029314;28;20500;-78
2023/10/06 06:53:56;;;;;;;0.85;0.73;;;14.70;1.00;;;;;;5024097;28;20144;-77
2023/10/06 06:56:28;;;;;;;0.38;0.38;;;14.60;1.00;;;;;;5039014;28;20510;-77
2023/10/06 06:58:55;;;;;;;10.23;0.80;;;14.70;1.00;;;;;;5049320;28;20052;-78
2023/10/06 07:01:21;;;;;;;0.95;0.68;;;14.60;1.00;;;;;;5040148;28;20528;-77
2023/10/06 07:03:47;;;;;;;0.08;0.08;;;14.80;1.00;;;;;;5028592;28;20115;-77
2023/10/06 07:06:16;;;;;;;0.43;0.43;;;14.80;1.00;;;;;;5028705;28;20052;-77
2023/10/06 07:08:46;;;;;;;0.00;0.00;;;14.80;99.90;;;;;;5028837;28;20052;-78
2023/10/06 07:11:13;;;;;;;1.92;1.45;;;14.80;99.90;;;;;;5029029;28;20445;-78
2023/10/06 07:13:39;;;;;;;0.05;0.05;;;14.90;99.90;;;;;;5026837;28;20045;-77
2023/10/06 07:16:05;;;;;;;0.85;0.30;;;15.00;99.90;;;;;;5028758;28;20044;-77
2023/10/06 07:18:35;;;;;;;1.98;1.85;;;15.00;99.90;;;;;;5027398;28;20048;-78
2023/10/06 07:21:07;;;;;;;1.25;0.68;;;15.10;80.40;;;;;;5028838;28;20049;-78
2023/10/06 07:23:34;;;;;;;0.52;0.35;;;15.10;99.90;;;;;;5027855;28;20039;-77
2023/10/06 07:26:00;;;;;;;1.50;0.77;;;15.40;91.40;;;;;;5020839;28;20068;-78
2023/10/06 07:28:27;;;;;;;16.98;1.08;;;15.20;99.90;;;;;;5029700;28;20053;-77
2023/10/06 07:30:52;;;;;;;1.30;1.17;;;15.20;83.90;;;;;;5046036;28;20064;-78
2023/10/06 07:33:19;;;;;;;1.17;0.82;;;15.20;33.60;;;;;;5048563;28;20033;-77
2023/10/06 07:35:51;;;;;;;1.50;0.82;;;15.20;26.50;;;;;;5048100;28;20048;-78
2023/10/06 07:38:18;;;;;;;0.32;0.30;;;15.00;99.90;;;;;;5049520;28;20076;-78
2023/10/06 07:40:43;;;;;;;0.30;0.30;;;14.90;99.90;;;;;;5047901;28;20155;-78
2023/10/06 07:43:10;;;;;;;1.10;0.88;;;14.90;1.00;;;;;;5053386;28;20041;-78
2023/10/06 07:45:36;;;;;;;0.47;0.47;;;14.90;1.00;;;;;;5053627;28;20472;-78
2023/10/06 07:48:05;;;;;;;2.83;1.23;;;15.00;1.00;;;;;;5050760;28;20090;-80
2023/10/06 07:50:33;;;;;;;2.45;1.45;;;15.20;1.00;;;;;;5033563;28;20101;-78
2023/10/06 07:53:00;;;;;;;4.40;0.65;;;15.50;99.90;;;;;;5032830;28;20041;-78
2023/10/06 07:55:26;;;;;;;0.77;0.43;;;15.50;84.10;;;;;;5034427;28;20060;-77
2023/10/06 07:57:51;;;;;;;0.70;0.65;;;15.70;1.00;;;;;;5054644;28;20071;-77
2023/10/06 08:00:27;;;;;;;2.45;1.38;;;15.80;99.90;;;;;;5054612;28;20513;-78
2023/10/06 08:02:59;;;;;;;0.77;0.65;;;15.80;99.90;;;;;;5055002;28;20582;-78
2023/10/06 08:05:25;;;;;;;2.28;1.80;;;15.80;99.90;;;;;;5055978;28;20444;-78
2023/10/06 08:07:52;;;;;;;0.77;0.68;;;15.70;99.90;;;;;;5054799;28;20037;-78
2023/10/06 08:10:18;;;;;;;0.32;0.32;;;15.70;99.90;;;;;;5054966;28;20406;-78
2023/10/06 08:12:50;;;;;;;1.05;0.63;;;15.60;99.90;;;;;;5054607;28;20076;-77
2023/10/06 08:15:22;;;;;;;0.60;0.52;;;15.60;1.00;;;;;;5056120;28;20116;-77
2023/10/06 08:17:55;;;;;;;5.22;1.08;;;15.60;1.00;;;;;;5054386;28;20498;-78
2023/10/06 08:20:22;;;;;;;0.28;0.20;;;15.70;1.00;;;;;;5053944;28;20037;-77
2023/10/06 08:22:49;;;;;;;0.75;0.75;;;15.80;99.90;;;;;;5053850;28;20043;-78
2023/10/06 08:25:15;;;;;;;0.90;0.88;;;16.00;99.90;;;;;;5053649;28;20041;-78
2023/10/06 08:27:43;;;;;;;0.88;0.75;;;16.10;99.90;;;;;;5053090;28;20045;-77
2023/10/06 08:30:16;;;;;;;0.90;0.65;;;16.60;99.90;;;;;;5053451;28;20037;-77
2023/10/06 08:32:45;;;;;;;1.48;0.98;;;16.30;79.20;;;;;;5054458;28;20048;-78
2023/10/06 08:35:14;;;;;;;0.75;0.38;;;16.60;21.20;;;;;;5046496;28;20053;-78
2023/10/06 08:37:41;;;;;;;0.40;0.40;;;16.80;99.90;;;;;;5055576;28;20037;-78
2023/10/06 08:40:08;;;;;;;0.60;0.60;;;16.90;99.90;;;;;;5055541;28;20049;-78
2023/10/06 08:42:36;;;;;;;1.23;0.65;;;17.20;1.00;;;;;;5055368;28;20037;-77
2023/10/06 08:45:03;;;;;;;0.15;0.15;;;17.20;1.00;;;;;;5055351;28;20378;-78
2023/10/06 08:47:29;;;;;;;2.33;0.95;;;17.40;99.90;;;;;;5056196;28;20037;-78
2023/10/06 08:49:56;;;;;;;0.80;0.45;;;17.60;99.90;;;;;;5055601;28;20045;-77
2023/10/06 08:52:22;;;;;;;16.00;1.73;;;17.70;99.90;;;;;;5054066;28;20406;-78
2023/10/06 08:54:49;;;;;;;0.25;0.25;;;17.60;99.90;;;;;;5055342;28;20055;-77
2023/10/06 08:57:15;;;;;;;1.95;0.30;;;17.60;99.90;;;;;;5055188;28;20516;-78
2023/10/06 08:59:41;;;;;;;0.55;0.32;;;17.80;99.90;;;;;;5055498;28;20410;-78
2023/10/06 09:02:09;;;;;;;1.98;1.00;;;17.90;99.90;;;;;;5055587;28;20187;-78
2023/10/06 09:04:37;;;;;;;1.25;0.60;;;18.00;99.90;;;;;;5054968;28;20045;-78
2023/10/06 09:07:08;;;;;;;1.75;1.23;;;17.90;99.90;;;;;;5055136;28;20130;-77
2023/10/06 09:09:34;;;;;;;1.48;1.08;;;17.70;99.90;;;;;;5054919;28;20048;-78
2023/10/06 09:11:59;;;;;;;0.95;0.68;;;18.20;99.90;;;;;;5054628;28;20132;-78
2023/10/06 09:14:25;;;;;;;3.03;1.77;;;17.90;99.90;;;;;;5054754;28;20116;-78
2023/10/06 09:16:51;;;;;;;0.70;0.70;;;18.00;99.90;;;;;;5055195;28;20127;-78
2023/10/06 09:19:18;;;;;;;1.55;1.08;;;18.30;74.30;;;;;;5054969;28;20045;-78
2023/10/06 09:22:01;;;;;;;0.63;0.57;;;18.40;21.40;;;;;;5054796;28;20041;-78
2023/10/06 09:24:27;;;;;;;1.52;0.95;;;18.40;1.00;;;;;;5053190;28;20041;-78
2023/10/06 09:26:55;;;;;;;0.60;0.50;;;18.50;1.00;;;;;;5052860;28;20518;-78
2023/10/06 09:29:39;;;;;;;3.08;0.98;;;18.20;1.00;;;;;;5055057;28;20045;-78
2023/10/06 09:32:21;;;;;;;3.00;0.85;;;18.10;1.00;;;;;;5046139;28;20052;-78
2023/10/06 09:34:53;;;;;;;2.10;1.27;;;18.00;1.00;;;;;;5054471;28;20452;-78
2023/10/06 09:37:20;;;;;;;2.05;1.75;;;17.90;33.10;;;;;;5054457;28;20037;-78
2023/10/06 09:39:56;;;;;;;0.68;0.68;;;17.90;28.90;;;;;;5054202;28;20087;-78
2023/10/06 09:42:28;;;;;;;2.42;0.73;;;17.90;33.40;;;;;;5047216;28;20047;-78
2023/10/06 09:45:06;;;;;;;1.33;0.35;;;18.00;67.00;;;;;;5054509;28;20047;-78
2023/10/06 09:47:38;;;;;;;2.05;0.88;;;18.10;49.30;;;;;;5047756;28;20100;-78
2023/10/06 09:50:06;;;;;;;2.00;1.08;;;18.20;22.30;;;;;;5054338;28;20041;-77
2023/10/06 09:52:34;;;;;;;0.13;0.13;;;18.20;21.80;;;;;;5054058;28;20087;-78
2023/10/06 09:55:04;;;;;;;0.10;0.10;;;18.20;24.50;;;;;;5054047;28;20041;-77
2023/10/06 09:57:32;;;;;;;0.30;0.22;;;18.20;12.30;;;;;;5045554;28;20048;-77
2023/10/06 10:00:00;;;;;;;1.58;0.68;;;18.30;4.00;;;;;;5053936;28;20049;-78
2023/10/06 10:02:29;;;;;;;0.20;0.13;;;18.60;1.40;;;;;;5053405;28;20033;-77
2023/10/06 10:04:59;;;;;;;2.00;0.85;;;18.70;1.00;;;;;;5054092;28;20124;-77
2023/10/06 10:07:28;;;;;;;2.53;0.90;;;19.00;1.00;;;;;;5054398;28;20371;-78
2023/10/06 10:09:55;;;;;;;0.10;0.10;;;19.40;1.00;;;;;;5053856;28;20474;-78
2023/10/06 10:12:48;;;;;;;0.25;0.25;;;19.60;1.00;;;;;;5053418;28;20037;-78
2023/10/06 10:15:32;;;;;;;1.30;1.00;;;19.90;1.00;;;;;;5053609;28;20049;-77
2023/10/06 10:18:15;;;;;;;0.22;0.22;;;20.20;1.00;;;;;;5046676;28;20398;-78
2023/10/06 10:20:41;;;;;;;0.20;0.20;;;20.30;1.00;;;;;;5053706;28;20048;-77
2023/10/06 10:23:14;;;;;;;4.38;0.60;;;20.10;1.00;;;;;;5053488;28;20036;-78
2023/10/06 10:25:39;;;;;;;0.30;0.30;;;20.10;1.00;;;;;;5052201;28;20052;-77
2023/10/06 10:28:27;;;;;;;2.60;1.55;;;20.40;1.00;;;;;;5052313;28;20045;-77
2023/10/06 10:31:02;;;;;;;0.63;0.47;;;20.50;1.00;;;;;;5053676;28;20445;-78
2023/10/06 10:33:33;;;;;;;3.30;1.52;;;20.60;1.00;;;;;;5053339;28;20371;-78
2023/10/06 10:36:20;;;;;;;3.65;0.75;;;20.60;1.00;;;;;;5052122;28;20120;-78
2023/10/06 10:38:57;;;;;;;0.10;0.10;;;20.40;1.00;;;;;;5053449;28;20053;-78
2023/10/06 10:41:26;;;;;;;0.68;0.68;;;20.30;1.00;;;;;;5051733;28;20056;-78
2023/10/06 10:43:53;;;;;;;0.40;0.38;;;20.30;1.00;;;;;;5052774;28;20071;-77
2023/10/06 10:46:48;;;;;;;1.65;0.55;;;20.30;1.00;;;;;;5053371;28;20048;-78
2023/10/06 10:49:19;;;;;;;0.50;0.50;;;20.20;1.00;;;;;;5053216;28;20081;-77
2023/10/06 10:52:00;;;;;;;0.30;0.30;;;20.40;1.00;;;;;;5053193;28;20072;-77
2023/10/06 10:54:31;;;;;;;2.13;0.93;;;20.50;1.00;;;;;;5045007;28;20041;-78
2023/10/06 10:57:05;;;;;;;1.55;0.98;;;20.50;1.00;;;;;;5053291;28;20080;-77
2023/10/06 11:02:48;;;;;;;8.68;1.10;;;20.50;1.00;;;;;;5044764;28;20045;-78
2023/10/06 11:05:18;;;;;;;0.50;0.50;;;20.70;1.00;;;;;;5052415;28;20509;-78
2023/10/06 11:07:58;;;;;;;0.20;0.20;;;20.90;1.00;;;;;;5053165;28;20041;-78
2023/10/06 11:10:26;;;;;;;0.32;0.32;;;21.00;1.00;;;;;;5053370;28;20040;-78
2023/10/06 11:13:19;;;;;;;1.50;0.85;;;21.00;1.00;;;;;;5052756;28;20417;-78
2023/10/06 11:15:48;;;;;;;3.05;0.60;;;20.90;1.00;;;;;;5048469;28;20048;-78
2023/10/06 11:18:17;;;;;;;0.55;0.40;;;20.70;99.90;;;;;;5052964;28;20041;-77
2023/10/06 11:20:44;;;;;;;1.45;0.80;;;20.50;99.90;;;;;;5053206;28;20045;-78
2023/10/06 11:23:10;;;;;;;0.52;0.45;;;20.30;99.90;;;;;;5051712;28;20045;-78
2023/10/06 11:25:46;;;;;;;11.05;0.55;;;20.30;99.90;;;;;;5053197;28;20040;-78
2023/10/06 11:28:12;;;;;;;0.65;0.22;;;20.40;1.00;;;;;;5053132;28;20077;-78
2023/10/06 11:30:40;;;;;;;5.45;0.45;;;20.60;99.90;;;;;;5053190;28;20065;-78
2023/10/06 11:33:09;;;;;;;2.47;0.68;;;20.50;99.90;;;;;;5045028;28;20095;-78
2023/10/06 11:35:36;;;;;;;1.55;0.95;;;20.60;99.90;;;;;;5052413;28;20041;-78
2023/10/06 11:38:05;;;;;;;1.65;0.60;;;20.50;99.90;;;;;;5052799;28;20040;-78
2023/10/06 11:40:31;;;;;;;0.38;0.35;;;20.40;99.90;;;;;;5053171;28;20073;-78
2023/10/06 11:43:11;;;;;;;0.47;0.43;;;20.30;99.90;;;;;;5052753;28;20037;-78
2023/10/06 11:45:36;;;;;;;1.05;0.65;;;20.30;99.90;;;;;;5052490;28;20414;-77
2023/10/06 11:48:02;;;;;;;0.63;0.63;;;20.30;99.90;;;;;;5053126;28;20045;-78
2023/10/06 11:50:32;;;;;;;2.10;1.15;;;20.40;99.90;;;;;;5053212;28;20456;-78
2023/10/06 11:53:01;;;;;;;0.57;0.55;;;20.50;99.90;;;;;;5053852;28;20371;-78
2023/10/06 11:55:30;;;;;;;0.00;0.00;;;20.70;99.90;;;;;;5044429;28;20079;-78
2023/10/06 11:57:58;;;;;;;0.05;0.05;;;20.90;99.90;;;;;;5052772;28;20052;-78
2023/10/06 12:00:43;;;;;;;1.27;0.80;;;21.10;99.90;;;;;;5052801;28;20045;-78
2023/10/06 12:03:12;;;;;;;1.13;0.80;;;20.90;99.90;;;;;;5052524;28;20087;-78
2023/10/06 12:05:55;;;;;;;2.13;1.00;;;20.80;99.90;;;;;;5052497;28;20037;-78
2023/10/06 12:08:20;;;;;;;1.25;0.90;;;20.80;99.90;;;;;;5051704;28;20039;-78
2023/10/06 12:10:50;;;;;;;0.00;0.00;;;20.70;99.90;;;;;;5051376;28;20549;-78
2023/10/06 12:13:19;;;;;;;0.25;0.22;;;20.60;99.90;;;;;;5047831;28;20040;-79
2023/10/06 12:15:46;;;;;;;0.90;0.80;;;20.60;99.90;;;;;;5033707;28;20033;-79
2023/10/06 12:18:16;;;;;;;0.28;0.28;;;20.70;99.90;;;;;;5033631;28;20033;-78
2023/10/06 12:20:41;;;;;;;5.32;0.35;;;20.60;99.90;;;;;;5035096;28;20041;-78
2023/10/06 12:23:07;;;;;;;0.90;0.57;;;20.70;99.90;;;;;;5034807;28;20076;-78
2023/10/06 12:25:33;;;;;;;0.10;0.10;;;20.60;99.90;;;;;;5035865;28;20501;-78
2023/10/06 12:28:00;;;;;;;0.98;0.50;;;20.70;99.90;;;;;;5037048;28;20073;-78
2023/10/06 12:30:26;;;;;;;0.10;0.10;;;20.90;99.90;;;;;;5037120;28;20122;-78
2023/10/06 12:32:54;;;;;;;0.10;0.10;;;21.00;99.90;;;;;;5038046;28;20048;-78
2023/10/06 12:35:21;;;;;;;0.40;0.20;;;21.10;99.90;;;;;;5036792;28;20090;-78
2023/10/06 12:37:48;;;;;;;0.93;0.90;;;21.20;99.90;;;;;;5037053;28;20041;-78
2023/10/06 12:40:15;;;;;;;9.57;2.55;;;21.50;99.90;;;;;;5038916;28;20033;-79
2023/10/06 12:42:42;;;;;;;0.13;0.10;;;21.90;1.00;;;;;;5038170;28;20606;-78
2023/10/06 12:45:12;;;;;;;1.20;0.80;;;22.00;99.90;;;;;;5038759;28;20045;-79
2023/10/06 12:47:39;;;;;;;1.85;0.85;;;21.80;99.90;;;;;;5037200;28;20457;-78
2023/10/06 12:50:06;;;;;;;0.40;0.35;;;21.50;99.90;;;;;;5038212;28;20051;-78
2023/10/06 12:52:36;;;;;;;0.50;0.47;;;21.50;99.90;;;;;;5037728;28;20383;-78
2023/10/06 12:55:10;;;;;;;4.97;0.98;;;21.40;99.90;;;;;;5037508;28;20056;-77
2023/10/06 12:57:40;;;;;;;0.30;0.30;;;21.50;99.90;;;;;;5040550;28;20398;-78
2023/10/06 13:00:07;;;;;;;0.13;0.13;;;21.60;99.90;;;;;;5055801;28;20044;-78
2023/10/06 13:02:34;;;;;;;0.03;0.03;;;21.50;99.90;;;;;;5056298;28;20124;-78
2023/10/06 13:05:13;;;;;;;0.95;0.57;;;21.40;99.90;;;;;;5030465;28;20068;-78
2023/10/06 13:07:39;;;;;;;0.20;0.20;;;21.10;99.90;;;;;;5024916;28;20431;-78
2023/10/06 13:10:06;;;;;;;0.70;0.70;;;21.00;99.90;;;;;;5034156;28;20037;-78
2023/10/06 13:12:42;;;;;;;0.30;0.30;;;20.80;99.90;;;;;;5039356;28;20044;-78
2023/10/06 13:15:17;;;;;;;2.65;0.85;;;20.80;99.90;;;;;;5034997;28;20349;-78
2023/10/06 13:17:50;;;;;;;1.08;0.47;;;20.70;99.90;;;;;;5032509;28;20451;-78
2023/10/06 13:20:16;;;;;;;0.43;0.43;;;20.70;99.90;;;;;;5033908;28;20082;-78